Time;durP1;ratioP1;P1;durP2;ratioP2;P2;SDS_P1;SDS_P2;PMS_P1;PMS_P2;Temp;Humidity;BMP_temperature;BMP_pressure;BME280_temperature;BME280_humidity;BME280_pressure;Samples;Min_cycle;Max_cycle;Signal;HPM_P1;HPM_P2
2021/06/13 00:00:11;;;;;;;4.60;2.90;;;;;;;17.86;67.41;99484.39;1684482;84;21053;-79
2021/06/13 00:02:39;;;;;;;3.62;2.92;;;;;;;17.85;67.39;99478.72;1644727;84;21133;-80
2021/06/13 00:05:08;;;;;;;3.83;3.52;;;;;;;17.84;67.48;99475.21;1669498;85;21068;-80
2021/06/13 00:07:34;;;;;;;5.05;3.25;;;;;;;17.80;67.76;99478.62;1682172;85;21034;-79
2021/06/13 00:10:00;;;;;;;3.10;2.90;;;;;;;17.77;67.87;99467.03;1629731;87;21072;-80
2021/06/13 00:12:26;;;;;;;;;;;;;;;17.73;68.08;99465.93;1653975;85;21031;-80
2021/06/13 00:14:54;;;;;;;3.08;2.87;;;;;;;17.75;68.13;99457.05;1699398;84;20169;-80
2021/06/13 00:17:20;;;;;;;3.40;2.95;;;;;;;17.70;68.31;99458.61;1700048;84;21573;-80
2021/06/13 00:19:48;;;;;;;3.62;3.40;;;;;;;17.69;68.42;99451.61;1694855;84;21527;-78
2021/06/13 00:22:15;;;;;;;3.75;3.55;;;;;;;17.64;68.81;99450.75;1686271;84;21108;-79
2021/06/13 00:24:41;;;;;;;3.55;3.25;;;;;;;17.58;69.16;99451.24;1669708;85;21674;-78
2021/06/13 00:27:08;;;;;;;4.67;3.30;;;;;;;17.63;68.95;99443.72;1653443;84;21168;-79
2021/06/13 00:29:36;;;;;;;3.42;3.15;;;;;;;17.66;68.89;99445.92;1664927;84;21076;-79
2021/06/13 00:32:04;;;;;;;4.05;3.58;;;;;;;17.65;68.96;99441.58;1670668;84;21591;-79
2021/06/13 00:34:30;;;;;;;3.47;3.27;;;;;;;17.59;69.26;99439.38;1670917;84;21055;-79
2021/06/13 00:36:56;;;;;;;4.05;3.42;;;;;;;17.55;69.43;99435.58;1662409;85;21203;-79
2021/06/13 00:39:22;;;;;;;3.05;2.65;;;;;;;17.56;69.53;99440.45;1672073;84;21096;-80
2021/06/13 00:41:48;;;;;;;;;;;;;;;17.58;69.42;99439.12;1677455;84;21722;-79
2021/06/13 00:44:14;;;;;;;4.30;3.87;;;;;;;17.58;69.49;99430.23;1666467;84;20149;-80
2021/06/13 00:46:41;;;;;;;3.70;3.40;;;;;;;17.43;70.21;99432.25;1658616;85;21068;-79
2021/06/13 00:49:09;;;;;;;5.00;3.27;;;;;;;17.37;70.34;99430.05;1665934;85;21194;-80
2021/06/13 00:51:35;;;;;;;5.83;3.65;;;;;;;17.34;70.45;99420.31;1668279;85;21021;-80
2021/06/13 00:54:03;;;;;;;4.65;3.60;;;;;;;17.40;70.39;99420.63;1609075;86;21036;-78
2021/06/13 00:56:32;;;;;;;3.95;3.65;;;;;;;17.43;70.45;99420.13;1675404;85;21020;-78
2021/06/13 00:59:00;;;;;;;3.92;2.85;;;;;;;17.42;70.44;99421.19;1663035;85;21005;-78
2021/06/13 01:01:27;;;;;;;5.17;4.40;;;;;;;17.38;70.52;99413.34;1679871;84;21622;-79
2021/06/13 01:03:54;;;;;;;3.80;3.60;;;;;;;17.34;70.74;99408.19;1633265;86;21623;-78
2021/06/13 01:06:45;;;;;;;4.08;3.50;;;;;;;17.35;70.60;99406.59;1686714;84;21517;-80
2021/06/13 01:09:16;;;;;;;3.62;3.33;;;;;;;17.40;70.59;99409.86;1676930;84;21175;-79
2021/06/13 01:12:15;;;;;;;4.20;3.98;;;;;;;17.42;70.52;99401.81;1686677;83;21012;-78
2021/06/13 01:14:55;;;;;;;4.97;4.50;;;;;;;17.41;70.42;99395.33;1682710;83;21067;-78
2021/06/13 01:17:53;;;;;;;6.10;4.90;;;;;;;17.38;70.44;99397.98;1681697;83;21083;-78
2021/06/13 01:20:31;;;;;;;5.03;4.40;;;;;;;17.35;70.50;99385.56;1687332;84;21127;-78
2021/06/13 01:23:08;;;;;;;3.30;2.95;;;;;;;17.37;70.64;99384.80;1676833;83;21107;-80
2021/06/13 01:26:14;;;;;;;5.12;3.45;;;;;;;17.39;70.37;99377.27;1670572;83;21087;-79
2021/06/13 01:29:02;;;;;;;5.17;3.22;;;;;;;17.38;70.41;99373.74;1684507;83;21114;-79
2021/06/13 01:31:38;;;;;;;3.85;3.55;;;;;;;17.33;70.54;99371.03;1686891;83;21167;-78
2021/06/13 01:34:19;;;;;;;4.30;3.90;;;;;;;17.22;71.18;99374.70;1677772;83;21081;-80
2021/06/13 01:36:48;;;;;;;4.60;4.35;;;;;;;17.12;71.55;99376.23;1684957;83;21506;-77
2021/06/13 01:39:25;;;;;;;7.55;4.17;;;;;;;17.12;71.69;99375.39;1685316;83;21038;-78
2021/06/13 01:41:57;;;;;;;4.40;3.85;;;;;;;17.13;71.75;99372.99;1670655;85;21139;-80
2021/06/13 01:44:26;;;;;;;6.65;4.95;;;;;;;17.09;71.94;99360.57;1685361;83;21600;-79
2021/06/13 01:46:55;;;;;;;4.60;4.20;;;;;;;17.09;71.94;99360.57;1668122;84;20998;-80
2021/06/13 01:49:23;;;;;;;7.75;5.40;;;;;;;17.07;71.95;99361.91;1685821;84;21526;-80
2021/06/13 01:51:50;;;;;;;4.60;4.20;;;;;;;17.09;71.96;99359.77;1678769;84;21538;-80
2021/06/13 01:54:19;;;;;;;5.70;4.20;;;;;;;17.09;71.96;99359.77;1667960;84;21518;-80
2021/06/13 01:56:50;;;;;;;5.45;5.15;;;;;;;17.12;71.91;99360.08;1645094;85;21055;-79
2021/06/13 01:59:22;;;;;;;6.50;5.78;;;;;;;17.12;71.97;99356.55;1667451;85;21028;-79
2021/06/13 02:01:55;;;;;;;6.42;5.35;;;;;;;17.07;72.13;99357.87;1655181;85;21019;-79
2021/06/13 02:04:25;;;;;;;5.67;5.20;;;;;;;17.06;72.37;99352.19;1657636;85;21194;-78
2021/06/13 02:06:58;;;;;;;5.92;5.35;;;;;;;17.07;72.16;99355.17;1654153;85;21079;-79
2021/06/13 02:09:32;;;;;;;6.92;5.78;;;;;;;17.07;72.16;99355.17;1667692;85;21517;-79
2021/06/13 02:12:05;;;;;;;5.42;4.95;;;;;;;17.08;72.25;99355.44;1628244;87;21058;-81
2021/06/13 02:14:39;;;;;;;6.17;5.67;;;;;;;17.09;72.21;99351.69;1666219;85;21529;-80
2021/06/13 02:17:07;;;;;;;5.50;4.97;;;;;;;17.10;72.21;99345.22;1654787;85;21016;-80
2021/06/13 02:19:41;;;;;;;5.17;4.67;;;;;;;17.25;71.87;99338.65;1642723;85;20974;-80
2021/06/13 02:22:18;;;;;;;4.87;4.55;;;;;;;17.51;70.99;99334.78;1650506;85;21067;-80
2021/06/13 02:24:43;;;;;;;8.05;4.50;;;;;;;17.75;70.04;99330.37;1673144;85;21643;-78
2021/06/13 02:27:18;;;;;;;5.30;4.75;;;;;;;17.97;69.19;99326.20;1642706;85;21019;-81
2021/06/13 02:29:46;;;;;;;5.92;4.75;;;;;;;18.16;68.32;99327.91;1651706;85;21568;-79
2021/06/13 02:32:15;;;;;;;5.05;4.50;;;;;;;18.40;67.72;99330.98;1643952;85;21094;-79
2021/06/13 02:34:47;;;;;;;5.00;4.60;;;;;;;18.59;66.92;99328.09;1648520;85;21074;-79
2021/06/13 02:37:15;;;;;;;5.17;4.00;;;;;;;18.58;66.09;99292.72;1651995;85;21120;-79
2021/06/13 02:39:42;;;;;;;4.72;4.00;;;;;;;19.01;65.58;99319.00;1649757;85;21053;-80
2021/06/13 02:42:11;;;;;;;6.10;4.65;;;;;;;19.17;64.86;99322.52;1648328;85;21056;-82
2021/06/13 02:44:39;;;;;;;6.37;5.03;;;;;;;19.32;64.24;99321.70;1640445;85;21136;-80
2021/06/13 02:47:05;;;;;;;5.35;4.95;;;;;;;19.48;63.69;99319.81;1627157;86;21034;-80
2021/06/13 02:49:32;;;;;;;5.12;4.65;;;;;;;19.64;63.21;99320.04;1669776;85;21075;-81
2021/06/13 02:52:25;;;;;;;5.37;4.05;;;;;;;19.83;62.69;99324.39;1641122;86;21041;-81
2021/06/13 02:54:57;;;;;;;6.45;4.37;;;;;;;19.96;61.89;99314.06;1633129;86;20984;-81
2021/06/13 02:57:36;;;;;;;5.47;4.92;;;;;;;20.10;61.39;99316.98;1688616;84;21144;-79
2021/06/13 03:00:07;;;;;;;4.85;3.83;;;;;;;20.19;61.16;99317.51;1703408;83;20998;-80
2021/06/13 03:02:40;;;;;;;5.65;4.28;;;;;;;20.39;60.67;99317.94;1683360;84;21094;-81
2021/06/13 03:05:09;;;;;;;4.55;4.17;;;;;;;20.74;59.47;99314.81;1681878;84;21476;-80
2021/06/13 03:07:36;;;;;;;4.10;3.72;;;;;;;20.99;59.10;99316.53;1646685;86;21116;-80
2021/06/13 03:10:08;;;;;;;4.78;3.92;;;;;;;21.24;58.13;99318.77;1665989;85;21033;-79
2021/06/13 03:12:36;;;;;;;3.90;3.58;;;;;;;21.49;57.57;99315.61;1653900;84;21088;-80
2021/06/13 03:15:06;;;;;;;4.35;3.95;;;;;;;21.69;56.83;99305.92;1649483;86;21077;-81
2021/06/13 03:17:36;;;;;;;4.22;3.92;;;;;;;21.81;55.93;99304.16;1636054;86;21047;-80
2021/06/13 03:20:06;;;;;;;5.12;4.00;;;;;;;21.95;55.90;99302.38;1648304;86;21117;-80
2021/06/13 03:22:37;;;;;;;3.42;3.12;;;;;;;22.16;54.98;99296.16;1645420;86;21042;-82
2021/06/13 03:25:07;;;;;;;3.77;3.50;;;;;;;22.42;54.57;99300.50;1647143;86;21185;-80
2021/06/13 03:27:37;;;;;;;4.25;3.85;;;;;;;22.47;53.72;99294.98;1625318;88;21069;-80
2021/06/13 03:30:07;;;;;;;4.30;3.58;;;;;;;22.48;53.86;99302.03;1629378;87;21029;-80
2021/06/13 03:32:35;;;;;;;3.00;2.83;;;;;;;22.51;53.94;99306.33;1619744;86;21044;-78
2021/06/13 03:35:05;;;;;;;2.77;2.67;;;;;;;22.63;53.76;99302.38;1628375;83;20951;-80
2021/06/13 03:37:33;;;;;;;5.70;3.90;;;;;;;22.93;53.35;99298.39;1685393;81;21469;-80
2021/06/13 03:40:02;;;;;;;4.10;3.52;;;;;;;23.20;52.06;99303.70;1684056;84;20996;-79
2021/06/13 03:42:31;;;;;;;3.15;2.95;;;;;;;23.37;51.94;99305.86;1684839;85;21000;-79
2021/06/13 03:44:58;;;;;;;4.80;3.92;;;;;;;23.70;51.21;99313.44;1661681;85;21080;-80
2021/06/13 03:47:26;;;;;;;3.25;3.05;;;;;;;23.80;50.41;99309.17;1674938;85;21606;-80
2021/06/13 03:49:54;;;;;;;3.33;3.12;;;;;;;23.54;50.64;99313.45;1672360;85;21041;-80
2021/06/13 03:52:22;;;;;;;3.50;3.30;;;;;;;23.32;51.25;99307.56;1673541;85;21028;-80
2021/06/13 03:54:49;;;;;;;6.35;3.45;;;;;;;23.20;51.31;99307.21;1661264;86;21053;-79
2021/06/13 03:57:19;;;;;;;3.58;3.25;;;;;;;22.98;51.91;99313.27;1673713;84;21640;-82
2021/06/13 03:59:48;;;;;;;6.28;3.70;;;;;;;22.88;52.25;99316.13;1666334;85;21079;-81
2021/06/13 04:02:16;;;;;;;3.83;3.60;;;;;;;22.97;52.40;99314.35;1705806;82;21098;-80
2021/06/13 04:04:52;;;;;;;4.03;3.62;;;;;;;23.21;52.23;99313.48;1710914;82;21049;-81
2021/06/13 04:07:20;;;;;;;3.92;3.62;;;;;;;23.57;51.67;99315.58;1709688;82;21007;-80
2021/06/13 04:09:46;;;;;;;5.70;3.85;;;;;;;23.91;50.30;99315.23;1660581;84;21010;-80
2021/06/13 04:12:18;;;;;;;5.78;4.50;;;;;;;24.07;50.10;99313.84;1705819;82;21165;-80
2021/06/13 04:14:46;;;;;;;4.30;4.00;;;;;;;24.26;49.36;99306.08;1702431;82;21036;-79
2021/06/13 04:17:19;;;;;;;3.25;3.08;;;;;;;24.47;48.89;99299.10;1694846;82;20996;-80
2021/06/13 04:19:47;;;;;;;4.58;3.08;;;;;;;24.57;48.42;99298.09;1705830;82;21383;-79
2021/06/13 04:22:17;;;;;;;4.47;3.50;;;;;;;24.65;48.34;99288.38;1700826;82;21582;-80
2021/06/13 04:24:46;;;;;;;3.87;3.65;;;;;;;24.75;48.01;99294.98;1734435;81;21625;-80
2021/06/13 04:27:14;;;;;;;4.10;3.70;;;;;;;24.82;47.91;99291.24;1728833;81;21030;-81
2021/06/13 04:29:40;;;;;;;6.58;3.80;;;;;;;24.97;47.17;99283.83;1728020;81;21092;-82
2021/06/13 04:32:09;;;;;;;5.05;3.08;;;;;;;25.04;47.25;99286.36;1719580;81;21086;-81
2021/06/13 04:34:39;;;;;;;5.58;2.58;;;;;;;25.23;46.95;99281.30;1731032;81;21112;-81
2021/06/13 04:37:07;;;;;;;3.05;2.85;;;;;;;25.32;46.04;99278.07;1734982;81;21085;-81
2021/06/13 04:39:36;;;;;;;5.50;3.45;;;;;;;25.35;46.27;99276.06;1734017;81;21040;-80
2021/06/13 04:42:04;;;;;;;4.37;3.27;;;;;;;25.51;45.92;99275.69;1727650;81;21087;-82
2021/06/13 04:44:31;;;;;;;3.12;2.83;;;;;;;25.41;45.57;99272.11;1722303;81;21003;-81
2021/06/13 04:46:57;;;;;;;6.05;3.12;;;;;;;25.22;46.21;99267.38;1711692;82;21087;-81
2021/06/13 04:49:23;;;;;;;4.08;2.87;;;;;;;25.18;46.66;99267.77;1707463;82;21093;-82
2021/06/13 04:51:57;;;;;;;4.30;2.65;;;;;;;25.26;46.65;99268.42;1710230;82;21674;-79
2021/06/13 04:54:34;;;;;;;3.95;2.95;;;;;;;25.32;46.37;99267.16;1704142;83;21091;-80
2021/06/13 04:57:27;;;;;;;3.17;2.60;;;;;;;25.33;46.78;99261.94;1709534;82;21521;-83
2021/06/13 04:59:53;;;;;;;4.17;3.40;;;;;;;25.22;46.46;99261.39;1707376;83;21015;-84
2021/06/13 05:02:20;;;;;;;3.98;2.95;;;;;;;25.17;46.64;99266.97;1729772;82;21251;-84
2021/06/13 05:04:47;;;;;;;2.90;2.62;;;;;;;25.16;46.85;99272.16;1726134;82;21054;-83
2021/06/13 05:07:13;;;;;;;4.08;3.80;;;;;;;25.16;46.83;99275.45;1726194;82;20973;-84
2021/06/13 05:09:46;;;;;;;3.62;3.33;;;;;;;25.11;46.85;99275.03;1700909;83;21010;-83
2021/06/13 05:12:12;;;;;;;3.65;3.47;;;;;;;25.19;46.98;99277.56;1718806;82;21064;-84
2021/06/13 05:14:39;;;;;;;2.87;2.67;;;;;;;25.38;46.81;99274.09;1727075;82;21069;-82
2021/06/13 05:17:06;;;;;;;5.45;2.92;;;;;;;25.48;46.91;99273.58;1724868;82;21583;-83
2021/06/13 05:19:32;;;;;;;5.35;2.70;;;;;;;25.63;46.69;99273.16;1728863;82;21002;-84
2021/06/13 05:21:58;;;;;;;5.40;3.40;;;;;;;25.90;46.47;99264.50;1726943;82;20986;-84
2021/06/13 05:24:25;;;;;;;4.45;2.75;;;;;;;26.09;45.15;99271.08;1721996;82;21732;-84
2021/06/13 05:26:51;;;;;;;3.67;3.37;;;;;;;26.14;45.23;99267.64;1724369;82;21492;-83
2021/06/13 05:29:17;;;;;;;1.77;1.77;;;;;;;26.21;46.69;99267.98;1726481;82;21029;-84
2021/06/13 05:31:43;;;;;;;3.33;3.05;;;;;;;26.44;45.64;99271.95;1723877;82;21070;-83
2021/06/13 05:34:10;;;;;;;4.30;2.98;;;;;;;26.67;44.81;99267.73;1713301;82;21153;-87
2021/06/13 05:36:36;;;;;;;2.37;2.25;;;;;;;26.77;45.03;99265.48;1714863;82;20990;-85
2021/06/13 05:39:03;;;;;;;3.83;2.42;;;;;;;26.92;43.37;99263.39;1709987;82;21015;-84
2021/06/13 05:41:29;;;;;;;3.85;2.20;;;;;;;27.07;43.93;99270.25;1717343;83;21013;-80
2021/06/13 05:44:00;;;;;;;2.65;2.17;;;;;;;27.29;42.94;99257.77;1706148;83;21009;-81
2021/06/13 05:46:24;;;;;;;4.67;2.05;;;;;;;27.45;42.52;99262.73;1709511;82;21001;-82
2021/06/13 05:48:50;;;;;;;2.17;1.98;;;;;;;27.56;41.83;99262.61;1700403;82;20968;-80
2021/06/13 05:51:16;;;;;;;3.70;1.80;;;;;;;27.65;41.08;99257.91;1704534;81;21010;-77
2021/06/13 05:53:42;;;;;;;2.22;1.60;;;;;;;27.77;40.35;99257.20;1709595;81;20989;-82
2021/06/13 05:56:09;;;;;;;2.87;1.70;;;;;;;27.80;39.42;99248.88;1713042;81;21783;-83
2021/06/13 05:58:35;;;;;;;5.00;1.55;;;;;;;27.71;39.93;99250.31;1731197;81;21073;-79
2021/06/13 06:01:02;;;;;;;2.02;1.87;;;;;;;27.50;40.28;99248.84;1707765;82;21597;-81
2021/06/13 06:03:28;;;;;;;1.60;1.50;;;;;;;27.35;40.25;99248.27;1691523;84;21045;-80
2021/06/13 06:05:55;;;;;;;3.95;2.30;;;;;;;27.45;40.65;99247.68;1692147;83;21591;-80
2021/06/13 06:08:21;;;;;;;2.12;1.90;;;;;;;27.43;39.66;99243.10;1722849;81;21062;-79
2021/06/13 06:10:50;;;;;;;3.47;1.27;;;;;;;27.11;40.89;99246.05;1728687;81;21053;-79
2021/06/13 06:16:23;;;;;;;;;;;;;;;26.52;42.37;99249.85;1811631;78;23237;-82
2021/06/13 06:18:49;;;;;;;2.45;1.40;;;;;;;26.35;41.73;99250.64;1775277;79;20140;-85
2021/06/13 06:21:17;;;;;;;2.65;1.55;;;;;;;26.25;42.83;99251.77;1781210;79;21088;-82
2021/06/13 06:23:44;;;;;;;2.27;1.20;;;;;;;26.33;41.17;99259.72;1719081;80;21680;-84
2021/06/13 06:26:10;;;;;;;3.10;1.77;;;;;;;26.42;41.06;99253.70;1705290;82;21072;-82
2021/06/13 06:28:37;;;;;;;3.67;1.17;;;;;;;26.53;41.50;99255.00;1697210;83;21024;-85
2021/06/13 06:31:03;;;;;;;1.45;1.32;;;;;;;26.82;41.10;99260.97;1709299;82;20984;-85
2021/06/13 06:33:30;;;;;;;1.10;0.85;;;;;;;26.99;39.98;99253.56;1715062;82;21057;-83
2021/06/13 06:35:57;;;;;;;2.75;1.00;;;;;;;27.14;39.95;99265.09;1752751;81;21006;-83
2021/06/13 06:38:24;;;;;;;2.17;1.50;;;;;;;27.16;39.91;99256.00;1746388;81;21049;-82
2021/06/13 06:40:50;;;;;;;1.67;1.05;;;;;;;27.27;38.95;99250.45;1752568;81;21091;-82
2021/06/13 06:43:16;;;;;;;0.80;0.80;;;;;;;27.31;38.81;99258.81;1749941;81;21108;-81
2021/06/13 06:45:42;;;;;;;1.47;1.37;;;;;;;27.16;39.32;99249.98;1713355;82;21061;-81
2021/06/13 06:48:08;;;;;;;2.25;1.80;;;;;;;27.03;39.92;99263.30;1708586;83;21018;-81
2021/06/13 06:50:35;;;;;;;1.22;1.15;;;;;;;26.76;40.79;99263.06;1717762;83;21085;-82
2021/06/13 06:53:01;;;;;;;1.42;0.88;;;;;;;26.58;41.06;99258.95;1705424;84;21038;-83
2021/06/13 06:55:27;;;;;;;1.40;1.17;;;;;;;26.64;41.19;99261.56;1704111;83;21095;-82
2021/06/13 06:57:55;;;;;;;1.10;0.93;;;;;;;26.88;39.51;99259.67;1706178;84;21023;-82
2021/06/13 07:00:22;;;;;;;1.07;0.80;;;;;;;27.04;38.83;99259.98;1715416;82;21145;-81
2021/06/13 07:02:48;;;;;;;3.27;0.78;;;;;;;27.17;39.20;99257.05;1687916;84;21127;-81
2021/06/13 07:05:18;;;;;;;1.75;1.02;;;;;;;27.47;39.67;99258.53;1690787;84;21039;-82
2021/06/13 07:07:45;;;;;;;0.70;0.57;;;;;;;27.64;37.58;99261.76;1688533;84;21109;-82
2021/06/13 07:10:15;;;;;;;1.12;0.65;;;;;;;27.35;37.41;99245.53;1692175;84;21032;-83
2021/06/13 07:12:46;;;;;;;4.55;0.85;;;;;;;27.18;38.30;99249.64;1673457;85;21119;-82
2021/06/13 07:15:13;;;;;;;3.58;0.88;;;;;;;27.14;38.95;99254.16;1654500;85;21144;-84
2021/06/13 07:17:48;;;;;;;4.15;0.85;;;;;;;27.32;39.76;99255.75;1698393;83;21105;-85
2021/06/13 07:20:27;;;;;;;1.20;0.98;;;;;;;27.42;38.94;99253.80;1696748;83;20956;-87
2021/06/13 07:22:53;;;;;;;2.77;1.20;;;;;;;27.28;39.38;99249.33;1679249;80;20975;-81
2021/06/13 07:25:21;;;;;;;2.17;1.10;;;;;;;27.11;39.10;99250.73;1696544;83;20994;-81
2021/06/13 07:27:51;;;;;;;1.98;1.10;;;;;;;26.97;39.14;99254.45;1696160;83;21038;-83
2021/06/13 07:30:19;;;;;;;1.35;1.07;;;;;;;26.96;39.33;99252.83;1682716;84;21062;-82
2021/06/13 07:32:45;;;;;;;1.17;1.17;;;;;;;26.96;39.86;99251.47;1699459;83;21081;-81
2021/06/13 07:35:12;;;;;;;2.25;1.02;;;;;;;26.97;39.83;99257.73;1669843;82;22019;-81
2021/06/13 07:37:41;;;;;;;3.00;0.75;;;;;;;27.01;40.37;99257.31;1694421;83;20996;-80
2021/06/13 07:40:09;;;;;;;2.10;1.92;;;;;;;27.04;40.20;99255.31;1690770;83;21131;-85
2021/06/13 07:42:35;;;;;;;1.70;1.45;;;;;;;26.98;39.80;99243.73;1705007;83;21119;-81
2021/06/13 07:45:06;;;;;;;1.98;1.32;;;;;;;26.91;39.87;99250.83;1690259;82;21048;-81
2021/06/13 07:47:34;;;;;;;4.33;1.57;;;;;;;26.84;39.68;99250.52;1690148;83;21040;-81
2021/06/13 07:50:00;;;;;;;1.37;1.30;;;;;;;26.67;39.43;99249.39;1689145;83;21152;-79
2021/06/13 07:52:27;;;;;;;1.65;1.55;;;;;;;26.48;39.77;99250.25;1677791;83;21010;-80
2021/06/13 07:54:53;;;;;;;1.90;1.75;;;;;;;26.30;40.41;99252.98;1689267;83;21101;-81
2021/06/13 07:57:19;;;;;;;1.55;1.45;;;;;;;26.06;41.59;99253.42;1647599;82;20983;-81
2021/06/13 07:59:46;;;;;;;1.80;1.70;;;;;;;25.79;42.06;99256.61;1632145;86;21601;-79
2021/06/13 08:02:12;;;;;;;1.70;1.60;;;;;;;25.56;42.95;99261.88;1635552;86;21078;-80
2021/06/13 08:04:43;;;;;;;2.67;2.05;;;;;;;25.33;43.31;99265.23;1610283;88;21029;-79
2021/06/13 08:07:07;;;;;;;3.25;2.00;;;;;;;25.12;43.80;99271.17;1610674;88;21148;-80
2021/06/13 08:09:36;;;;;;;5.65;2.05;;;;;;;24.98;44.20;99270.45;1609961;87;21558;-79
2021/06/13 08:12:05;;;;;;;1.72;1.67;;;;;;;24.91;44.21;99267.36;1633139;84;21090;-82
2021/06/13 08:14:31;;;;;;;3.20;2.65;;;;;;;24.82;44.24;99272.16;1641103;87;21072;-80
2021/06/13 08:16:57;;;;;;;2.25;2.15;;;;;;;24.75;44.93;99275.08;1672139;84;21576;-82
2021/06/13 08:19:24;;;;;;;5.60;2.25;;;;;;;24.73;45.63;99275.38;1642268;85;21092;-81
2021/06/13 08:21:54;;;;;;;2.58;2.15;;;;;;;24.70;45.88;99271.13;1617982;87;21070;-81
2021/06/13 08:24:20;;;;;;;4.33;2.55;;;;;;;24.69;45.99;99268.94;1643428;86;20962;-80
2021/06/13 08:26:47;;;;;;;3.00;2.80;;;;;;;24.65;46.37;99275.56;1644266;86;21542;-79
2021/06/13 08:29:13;;;;;;;5.58;2.47;;;;;;;24.58;46.10;99275.73;1649596;86;21231;-80
2021/06/13 08:31:39;;;;;;;5.37;2.15;;;;;;;24.51;46.37;99267.97;1642047;87;21426;-81
2021/06/13 08:34:06;;;;;;;3.22;2.05;;;;;;;24.40;46.55;99270.67;1634654;87;21017;-80
2021/06/13 08:36:33;;;;;;;3.08;2.22;;;;;;;24.25;46.90;99277.26;1627073;87;21545;-80
2021/06/13 08:38:59;;;;;;;2.30;2.10;;;;;;;24.14;47.14;99273.14;1671943;86;21031;-81
2021/06/13 08:41:26;;;;;;;2.42;2.30;;;;;;;24.03;47.50;99273.33;1658222;86;21063;-80
2021/06/13 08:43:53;;;;;;;2.75;2.65;;;;;;;23.98;47.51;99280.27;1672137;84;21032;-78
2021/06/13 08:46:22;;;;;;;3.70;2.52;;;;;;;24.01;47.75;99270.67;1669275;85;21050;-80
2021/06/13 08:48:52;;;;;;;2.27;2.05;;;;;;;24.09;47.26;99274.03;1671875;86;21101;-81
2021/06/13 08:51:22;;;;;;;5.15;2.58;;;;;;;24.20;47.43;99276.00;1671763;85;21021;-79
2021/06/13 08:53:50;;;;;;;1.98;1.87;;;;;;;24.34;46.04;99274.06;1671874;86;21097;-80
2021/06/13 08:56:20;;;;;;;5.35;2.77;;;;;;;24.51;45.47;99271.27;1662729;85;21023;-81
2021/06/13 08:58:47;;;;;;;2.87;2.67;;;;;;;24.64;45.39;99268.52;1687135;84;21017;-82
2021/06/13 09:01:15;;;;;;;3.00;2.72;;;;;;;24.80;44.42;99258.61;1686609;84;20982;-82
2021/06/13 09:03:43;;;;;;;2.35;2.22;;;;;;;24.92;45.17;99265.69;1686135;84;21499;-81
2021/06/13 09:06:11;;;;;;;6.05;3.30;;;;;;;24.97;44.79;99262.02;1687438;85;21539;-81
2021/06/13 09:08:42;;;;;;;2.98;2.77;;;;;;;24.94;45.21;99262.09;1682875;85;21018;-80
2021/06/13 09:11:13;;;;;;;5.00;3.25;;;;;;;24.84;45.96;99265.05;1683001;84;22317;-81
2021/06/13 09:13:42;;;;;;;8.23;3.72;;;;;;;24.73;46.66;99260.95;1681499;85;21097;-81
2021/06/13 09:16:11;;;;;;;10.90;3.90;;;;;;;24.54;50.46;99293.81;1679268;84;21535;-79
2021/06/13 09:18:46;;;;;;;4.45;4.10;;;;;;;24.12;52.65;99295.78;1663722;85;21588;-80
2021/06/13 09:21:26;;;;;;;5.90;5.20;;;;;;;23.58;54.68;99301.66;1671003;86;21328;-78
2021/06/13 09:23:53;;;;;;;5.62;5.05;;;;;;;23.04;58.52;99308.59;1669438;85;20982;-80
2021/06/13 09:26:27;;;;;;;5.40;4.25;;;;;;;22.45;59.94;99293.11;1670486;86;21119;-80
2021/06/13 09:28:55;;;;;;;8.20;5.95;;;;;;;21.96;62.55;99297.23;1670487;85;21028;-81
2021/06/13 09:31:27;;;;;;;4.97;4.40;;;;;;;21.64;63.14;99297.83;1649066;86;21031;-81
2021/06/13 09:33:58;;;;;;;5.58;5.12;;;;;;;21.38;64.96;99302.69;1670402;84;21065;-81
2021/06/13 09:36:32;;;;;;;6.40;6.00;;;;;;;21.14;65.95;99305.33;1670432;86;21047;-82
2021/06/13 09:39:09;;;;;;;10.40;9.48;;;;;;;20.92;66.60;99304.40;1670206;85;21022;-80
2021/06/13 09:41:44;;;;;;;7.40;6.90;;;;;;;20.81;66.20;99318.55;1671701;86;21130;-80
2021/06/13 09:44:14;;;;;;;9.70;6.65;;;;;;;20.83;67.24;99325.05;1670476;84;21083;-80
2021/06/13 09:46:44;;;;;;;6.22;5.62;;;;;;;20.88;67.35;99320.95;1671567;85;21007;-80
2021/06/13 09:49:13;;;;;;;7.25;6.55;;;;;;;21.00;66.34;99316.80;1670689;86;21038;-81
2021/06/13 09:51:44;;;;;;;5.45;5.00;;;;;;;21.11;66.65;99318.88;1671374;86;20994;-82
2021/06/13 09:54:27;;;;;;;6.47;5.72;;;;;;;21.28;67.03;99307.63;1668254;85;21026;-81
2021/06/13 09:56:56;;;;;;;5.83;5.55;;;;;;;21.51;67.43;99310.18;1664956;84;21559;-81
2021/06/13 09:59:32;;;;;;;5.17;4.87;;;;;;;21.69;66.10;99309.19;1668586;86;21303;-82
2021/06/13 10:02:02;;;;;;;8.55;4.35;;;;;;;21.82;65.48;99305.79;1669695;84;21074;-80
2021/06/13 10:04:36;;;;;;;5.90;4.55;;;;;;;21.87;61.67;99308.98;1665355;85;21078;-83
2021/06/13 10:07:23;;;;;;;4.72;4.42;;;;;;;21.81;63.12;99308.23;1661922;85;21050;-81
2021/06/13 10:09:53;;;;;;;3.45;3.25;;;;;;;21.78;64.55;99310.17;1670856;86;21583;-81
2021/06/13 10:12:20;;;;;;;2.60;2.42;;;;;;;21.73;63.82;99306.16;1670131;84;21273;-79
2021/06/13 10:14:50;;;;;;;2.40;2.20;;;;;;;21.75;63.15;99311.54;1671243;84;21070;-81
2021/06/13 10:17:18;;;;;;;2.50;2.40;;;;;;;21.82;61.43;99312.57;1679055;83;21080;-80
2021/06/13 10:19:49;;;;;;;2.05;1.95;;;;;;;21.82;60.12;99312.57;1659182;83;21146;-78
2021/06/13 10:22:18;;;;;;;1.42;1.42;;;;;;;21.79;59.78;99309.06;1703181;83;21677;-82
2021/06/13 10:24:49;;;;;;;3.42;1.50;;;;;;;21.74;60.04;99307.23;1662334;85;21029;-82
2021/06/13 10:27:20;;;;;;;1.70;1.60;;;;;;;21.70;59.52;99303.48;1658813;85;21595;-81
2021/06/13 10:29:50;;;;;;;1.72;1.72;;;;;;;21.68;58.19;99304.31;1653782;85;21005;-79
2021/06/13 10:32:17;;;;;;;2.77;0.90;;;;;;;21.72;58.25;99313.48;1669882;85;21523;-79
2021/06/13 10:34:46;;;;;;;1.40;0.70;;;;;;;21.77;58.06;99331.08;1701425;82;21523;-81
2021/06/13 10:37:14;;;;;;;1.55;0.75;;;;;;;21.77;57.45;99328.36;1719363;82;21063;-79
2021/06/13 10:39:40;;;;;;;1.45;0.45;;;;;;;21.72;57.55;99326.25;1707859;82;21041;-80
2021/06/13 10:42:19;;;;;;;0.60;0.40;;;;;;;21.68;57.40;99320.59;1712260;82;21561;-81
2021/06/13 10:44:49;;;;;;;1.77;0.60;;;;;;;21.65;57.23;99314.92;1707306;82;21222;-82
2021/06/13 10:47:18;;;;;;;0.72;0.62;;;;;;;21.54;58.81;99306.87;1707747;82;21001;-94
2021/06/13 10:49:52;;;;;;;0.50;0.40;;;;;;;21.42;58.83;99311.86;1711576;83;21067;-95
2021/06/13 10:52:23;;;;;;;1.05;0.50;;;;;;;21.36;57.85;99315.69;1707037;83;21528;-93
2021/06/13 10:54:55;;;;;;;0.35;0.35;;;;;;;21.33;58.48;99304.08;1700485;84;20984;-92
2021/06/13 10:57:33;;;;;;;1.07;0.50;;;;;;;21.20;56.98;99307.69;1614036;85;21082;-92
2021/06/13 11:00:20;;;;;;;0.62;0.45;;;;;;;21.11;57.38;99336.48;1664360;85;21065;-86
2021/06/13 11:02:55;;;;;;;0.90;0.42;;;;;;;21.07;56.19;99353.05;1662416;85;21651;-81
2021/06/13 11:05:37;;;;;;;0.95;0.30;;;;;;;21.04;55.84;99375.83;1665240;85;21164;-82
2021/06/13 11:08:04;;;;;;;0.57;0.37;;;;;;;21.07;57.44;99376.63;1672581;85;21070;-81
2021/06/13 11:10:32;;;;;;;0.62;0.20;;;;;;;21.07;55.77;99369.86;1664094;85;21038;-83
2021/06/13 11:13:17;;;;;;;0.20;0.20;;;;;;;21.08;55.85;99368.75;1649731;85;21028;-84
2021/06/13 11:15:48;;;;;;;2.65;0.20;;;;;;;21.11;55.53;99371.70;1640506;86;21096;-81
2021/06/13 11:18:22;;;;;;;1.55;0.20;;;;;;;21.13;55.46;99380.36;1655688;85;21068;-83
2021/06/13 11:23:33;;;;;;;0.20;0.20;;;;;;;21.15;54.65;99371.95;1657503;85;21091;-88
2021/06/13 11:26:03;;;;;;;0.13;0.10;;;;;;;21.13;55.88;99365.45;1658428;85;21038;-87
2021/06/13 11:28:42;;;;;;;0.25;0.15;;;;;;;21.14;56.26;99373.06;1658300;85;21108;-84
2021/06/13 11:31:14;;;;;;;0.72;0.20;;;;;;;21.11;56.93;99369.00;1657313;85;21121;-86
2021/06/13 11:33:48;;;;;;;2.33;0.30;;;;;;;21.14;56.63;99354.90;1648904;85;21044;-85
2021/06/13 11:36:23;;;;;;;0.10;0.10;;;;;;;21.23;56.15;99355.64;1622758;87;21030;-84
2021/06/13 11:39:04;;;;;;;0.68;0.30;;;;;;;21.30;53.92;99361.55;1623959;88;21137;-90
2021/06/13 11:41:39;;;;;;;2.45;0.20;;;;;;;21.42;54.74;99370.66;1620431;87;21031;-89
2021/06/13 11:44:10;;;;;;;0.30;0.20;;;;;;;21.55;53.91;99389.84;1624886;86;21078;-85
2021/06/13 11:46:40;;;;;;;0.28;0.10;;;;;;;21.67;53.12;99375.91;1642103;87;21066;-90
2021/06/13 11:49:15;;;;;;;0.57;0.10;;;;;;;21.77;52.20;99374.99;1644339;87;21064;-91
2021/06/13 11:51:54;;;;;;;0.10;0.10;;;;;;;21.82;51.39;99371.44;1600585;88;21689;-89